createdAt,value
2018-11-29T00:00:06.221Z,74.00
2018-11-29T00:01:05.285Z,73.80
2018-11-29T00:02:07.836Z,74.00
2018-11-29T00:03:05.954Z,73.90
2018-11-29T00:04:05.195Z,74.00
2018-11-29T00:05:05.253Z,74.00
2018-11-29T00:06:07.952Z,74.10
2018-11-29T00:07:06.096Z,74.10
2018-11-29T00:08:10.185Z,74.20
2018-11-29T00:09:05.060Z,74.20
2018-11-29T00:10:05.199Z,74.20
2018-11-29T00:11:05.295Z,74.20
2018-11-29T00:12:05.369Z,74.30
2018-11-29T00:13:07.988Z,74.30
2018-11-29T00:14:04.966Z,74.40
2018-11-29T00:15:07.802Z,74.40
2018-11-29T00:16:08.423Z,74.40
2018-11-29T00:17:05.441Z,74.40
2018-11-29T00:18:08.093Z,74.40
2018-11-29T00:19:04.955Z,74.40
2018-11-29T00:20:07.531Z,74.40
2018-11-29T00:21:07.931Z,74.40
2018-11-29T00:22:05.910Z,74.40
2018-11-29T00:23:04.925Z,74.40
2018-11-29T00:24:04.999Z,74.40
2018-11-29T00:25:07.565Z,74.30
2018-11-29T00:26:08.216Z,74.30
2018-11-29T00:27:05.162Z,74.30
2018-11-29T00:28:05.206Z,74.20
2018-11-29T00:29:05.642Z,74.20
2018-11-29T00:30:05.777Z,74.10
2018-11-29T00:31:06.071Z,74.10
2018-11-29T00:32:07.874Z,74.00
2018-11-29T00:33:05.910Z,74.00
2018-11-29T00:34:05.030Z,73.90
2018-11-29T00:35:05.102Z,73.80
2018-11-29T00:36:05.144Z,73.80
2018-11-29T00:37:05.220Z,73.70
2018-11-29T00:38:05.300Z,73.20
2018-11-29T00:39:05.359Z,73.00
2018-11-29T00:40:05.514Z,73.00
2018-11-29T00:41:05.671Z,73.00
2018-11-29T00:42:05.778Z,73.00
2018-11-29T00:43:08.512Z,72.90
2018-11-29T00:44:08.014Z,73.00
2018-11-29T00:45:05.164Z,72.80
2018-11-29T00:46:05.243Z,72.80
2018-11-29T00:47:05.460Z,72.70
2018-11-29T00:48:05.484Z,72.50
2018-11-29T00:49:04.930Z,72.50
2018-11-29T00:50:05.017Z,72.60
2018-11-29T00:51:05.124Z,72.50
2018-11-29T00:52:07.896Z,72.10
2018-11-29T00:53:05.902Z,72.20
2018-11-29T00:54:11.024Z,71.80
2018-11-29T00:55:08.532Z,71.80
2018-11-29T00:56:05.448Z,71.80
2018-11-29T00:57:05.543Z,71.50
2018-11-29T00:58:05.648Z,71.40
2018-11-29T00:59:08.258Z,71.30
2018-11-29T01:00:05.188Z,71.30
2018-11-29T01:01:08.359Z,71.20
2018-11-29T01:02:07.881Z,71.10
2018-11-29T01:03:05.806Z,71.10
2018-11-29T01:04:05.941Z,71.20
2018-11-29T01:05:10.062Z,71.10
2018-11-29T01:06:04.981Z,71.10
2018-11-29T01:07:05.221Z,71.00
2018-11-29T01:08:07.835Z,71.00
2018-11-29T01:09:08.286Z,71.00
2018-11-29T01:10:05.381Z,71.00
2018-11-29T01:11:05.565Z,71.00
2018-11-29T01:12:08.152Z,70.60
2018-11-29T01:13:05.275Z,70.60
2018-11-29T01:14:05.444Z,70.40
2018-11-29T01:15:05.764Z,70.50
2018-11-29T01:16:05.921Z,70.50
2018-11-29T01:17:07.500Z,70.40
2018-11-29T01:18:05.507Z,70.40
2018-11-29T01:19:05.857Z,70.50
2018-11-29T01:20:04.970Z,70.40
2018-11-29T01:21:05.206Z,70.40
2018-11-29T01:22:05.267Z,70.20
2018-11-29T01:23:05.411Z,70.30
2018-11-29T01:24:05.514Z,70.30
2018-11-29T01:25:08.071Z,69.80
2018-11-29T01:26:07.505Z,69.70
2018-11-29T01:27:05.546Z,69.70
2018-11-29T01:28:05.681Z,69.80
2018-11-29T01:29:05.003Z,69.80
2018-11-29T01:30:05.096Z,69.80
2018-11-29T01:31:07.809Z,69.70
2018-11-29T01:32:08.275Z,69.80
2018-11-29T01:33:05.205Z,69.80
2018-11-29T01:34:07.884Z,69.80
2018-11-29T01:35:05.981Z,69.80
2018-11-29T01:36:07.753Z,69.90
2018-11-29T01:37:08.456Z,70.00
2018-11-29T01:38:08.065Z,70.00
2018-11-29T01:39:04.995Z,70.00
2018-11-29T01:40:05.082Z,70.00
2018-11-29T01:41:07.722Z,70.00
2018-11-29T01:42:05.871Z,70.10
2018-11-29T01:43:06.143Z,70.10
2018-11-29T01:44:05.294Z,69.50
2018-11-29T01:45:08.026Z,69.60
2018-11-29T01:46:05.165Z,69.60
2018-11-29T01:47:07.838Z,69.40
2018-11-29T01:48:08.368Z,69.50
2018-11-29T01:49:07.773Z,69.30
2018-11-29T01:50:05.889Z,69.30
2018-11-29T01:51:04.953Z,69.30
2018-11-29T01:52:05.039Z,69.30
2018-11-29T01:53:05.166Z,69.30
2018-11-29T01:54:05.191Z,69.20
2018-11-29T01:55:05.370Z,69.00
2018-11-29T01:56:08.139Z,69.00
2018-11-29T01:57:07.674Z,69.20
2018-11-29T01:58:05.773Z,69.10
2018-11-29T01:59:08.591Z,69.20
2018-11-29T02:00:05.721Z,69.20
2018-11-29T02:01:06.083Z,69.10
2018-11-29T02:02:05.224Z,69.10
2018-11-29T02:03:05.303Z,69.10
2018-11-29T02:04:05.379Z,69.20
2018-11-29T02:05:05.470Z,69.20
2018-11-29T02:06:08.067Z,69.30
2018-11-29T02:07:07.587Z,69.20
2018-11-29T02:08:05.715Z,69.20
2018-11-29T02:09:05.836Z,69.10
2018-11-29T02:10:05.902Z,69.00
2018-11-29T02:11:10.053Z,69.10
2018-11-29T02:12:07.636Z,68.80
2018-11-29T02:13:08.106Z,68.90
2018-11-29T02:14:07.685Z,68.80
2018-11-29T02:15:05.648Z,68.90
2018-11-29T02:16:05.711Z,68.80
2018-11-29T02:17:05.950Z,68.90
2018-11-29T02:18:05.025Z,68.80
2018-11-29T02:19:05.163Z,68.80
2018-11-29T02:20:05.171Z,68.60
2018-11-29T02:21:05.211Z,68.60
2018-11-29T02:22:05.393Z,68.80
2018-11-29T02:23:05.711Z,68.70
2018-11-29T02:24:05.825Z,68.60
2018-11-29T02:25:05.948Z,68.50
2018-11-29T02:26:05.060Z,68.40
2018-11-29T02:27:07.603Z,68.10
2018-11-29T02:28:05.664Z,67.90
2018-11-29T02:29:05.872Z,67.60
2018-11-29T02:30:05.018Z,67.90
2018-11-29T02:31:05.088Z,68.00
2018-11-29T02:32:05.111Z,68.10
2018-11-29T02:33:07.679Z,68.00
2018-11-29T02:34:05.684Z,68.00
2018-11-29T02:35:05.743Z,68.00
2018-11-29T02:36:08.287Z,67.90
2018-11-29T02:37:07.643Z,67.60
2018-11-29T02:38:05.776Z,67.70
2018-11-29T02:39:05.922Z,67.60
2018-11-29T02:40:07.785Z,67.60
2018-11-29T02:41:05.871Z,67.60
2018-11-29T02:42:06.101Z,67.60
2018-11-29T02:43:05.328Z,67.60
2018-11-29T02:44:05.480Z,67.40
2018-11-29T02:45:08.347Z,67.00
2018-11-29T02:46:07.934Z,66.80
2018-11-29T02:47:06.059Z,66.80
2018-11-29T02:48:07.739Z,66.60
2018-11-29T02:49:11.056Z,66.70
2018-11-29T02:50:05.010Z,66.70
2018-11-29T02:51:05.137Z,66.80
2018-11-29T02:52:07.738Z,66.60
2018-11-29T02:53:08.616Z,66.30
2018-11-29T02:54:05.585Z,66.40
2018-11-29T02:55:08.273Z,66.30
2018-11-29T02:56:07.747Z,66.20
2018-11-29T02:57:05.752Z,66.20
2018-11-29T02:58:05.723Z,66.20
2018-11-29T02:59:05.781Z,66.30
2018-11-29T03:00:05.834Z,66.30
2018-11-29T03:01:05.990Z,66.40
2018-11-29T03:02:05.080Z,66.50
2018-11-29T03:03:05.273Z,66.50
2018-11-29T03:04:05.384Z,66.50
2018-11-29T03:05:05.904Z,66.60
2018-11-29T03:06:07.576Z,66.40
2018-11-29T03:07:05.681Z,66.40
2018-11-29T03:08:06.000Z,66.40
2018-11-29T03:09:05.130Z,66.60
2018-11-29T03:10:05.263Z,66.50
2018-11-29T03:11:05.348Z,66.40
2018-11-29T03:12:15.552Z,66.40
2018-11-29T03:13:05.662Z,66.60
2018-11-29T03:14:08.337Z,66.60
2018-11-29T03:15:05.473Z,66.60
2018-11-29T03:16:05.634Z,66.60
2018-11-29T03:17:05.765Z,66.50
2018-11-29T03:18:08.500Z,66.50
2018-11-29T03:19:05.527Z,66.40
2018-11-29T03:20:05.639Z,66.50
2018-11-29T03:21:05.685Z,66.60
2018-11-29T03:22:05.803Z,66.60
2018-11-29T03:23:06.018Z,66.70
2018-11-29T03:24:05.058Z,66.60
2018-11-29T03:25:05.180Z,66.60
2018-11-29T03:26:07.970Z,66.60
2018-11-29T03:27:05.031Z,66.60
2018-11-29T03:28:05.104Z,66.70
2018-11-29T03:29:07.882Z,66.60
2018-11-29T03:30:06.033Z,66.50
2018-11-29T03:31:05.171Z,66.40
2018-11-29T03:32:05.232Z,66.20
2018-11-29T03:33:05.317Z,66.10
2018-11-29T03:34:05.366Z,66.00
2018-11-29T03:35:05.533Z,66.00
2018-11-29T03:36:05.729Z,66.10
2018-11-29T03:37:08.451Z,66.10
2018-11-29T03:38:05.664Z,66.10
2018-11-29T03:39:05.949Z,66.00
2018-11-29T03:40:05.100Z,66.00
2018-11-29T03:41:05.360Z,66.10
2018-11-29T03:42:05.445Z,66.20
2018-11-29T03:43:08.279Z,66.10
2018-11-29T03:44:07.965Z,66.20
2018-11-29T03:45:05.026Z,66.20
2018-11-29T03:46:05.126Z,66.20
2018-11-29T03:47:05.193Z,65.70
2018-11-29T03:48:05.785Z,65.70
2018-11-29T03:49:04.999Z,65.80
2018-11-29T03:50:05.100Z,65.90
2018-11-29T03:51:07.850Z,66.10
2018-11-29T03:52:05.925Z,66.10
2018-11-29T03:53:10.058Z,66.20
2018-11-29T03:54:10.039Z,66.20
2018-11-29T03:55:05.066Z,66.20
2018-11-29T03:56:05.535Z,66.20
2018-11-29T03:57:08.145Z,66.40
2018-11-29T03:58:05.109Z,66.40
2018-11-29T03:59:05.170Z,66.40
2018-11-29T04:00:07.737Z,66.40
2018-11-29T04:01:05.846Z,66.30
2018-11-29T04:02:07.614Z,66.10
2018-11-29T04:03:08.186Z,66.10
2018-11-29T04:04:07.691Z,66.00
2018-11-29T04:05:05.565Z,66.00
2018-11-29T04:06:05.679Z,66.10
2018-11-29T04:07:08.348Z,66.10
2018-11-29T04:08:05.232Z,66.10
2018-11-29T04:09:05.310Z,66.00
2018-11-29T04:10:08.032Z,65.80
2018-11-29T04:11:05.021Z,65.70
2018-11-29T04:12:05.319Z,65.70
2018-11-29T04:13:05.640Z,65.80
2018-11-29T04:14:05.725Z,65.70
2018-11-29T04:15:08.362Z,65.50
2018-11-29T04:16:10.342Z,65.60
2018-11-29T04:17:05.286Z,65.60
2018-11-29T04:18:05.366Z,65.40
2018-11-29T04:19:05.637Z,65.50
2018-11-29T04:20:10.750Z,65.60
2018-11-29T04:21:10.806Z,65.40
2018-11-29T04:22:05.874Z,65.40
2018-11-29T04:23:04.946Z,65.20
2018-11-29T04:24:05.088Z,65.10
2018-11-29T04:25:05.241Z,65.20
2018-11-29T04:26:10.038Z,65.10
2018-11-29T04:27:05.220Z,65.10
2018-11-29T04:28:05.293Z,65.00
2018-11-29T04:29:05.657Z,64.90
2018-11-29T04:30:05.754Z,64.70
2018-11-29T04:31:08.329Z,64.70
2018-11-29T04:32:05.228Z,64.80
2018-11-29T04:33:05.232Z,64.80
2018-11-29T04:34:05.311Z,64.70
2018-11-29T04:35:05.489Z,64.50
2018-11-29T04:36:05.689Z,64.50
2018-11-29T04:37:05.785Z,64.50
2018-11-29T04:38:08.552Z,64.60
2018-11-29T04:39:08.123Z,64.90
2018-11-29T04:40:05.121Z,65.00
2018-11-29T04:41:07.677Z,65.10
2018-11-29T04:42:05.724Z,65.20
2018-11-29T04:43:05.850Z,65.10
2018-11-29T04:44:10.973Z,65.40
2018-11-29T04:45:05.036Z,65.40
2018-11-29T04:46:05.141Z,65.40
2018-11-29T04:47:07.832Z,65.60
2018-11-29T04:48:10.387Z,65.60
2018-11-29T04:49:05.801Z,65.50
2018-11-29T04:50:06.016Z,65.80
2018-11-29T04:51:05.023Z,65.70
2018-11-29T04:52:05.222Z,52.90
2018-11-29T04:53:05.339Z,65.80
2018-11-29T04:54:05.392Z,65.80
2018-11-29T04:55:05.565Z,65.80
2018-11-29T04:56:05.668Z,65.60
2018-11-29T04:57:05.785Z,65.50
2018-11-29T04:58:05.921Z,65.50
2018-11-29T04:59:10.164Z,65.50
2018-11-29T05:00:05.109Z,65.40
2018-11-29T05:01:05.182Z,65.50
2018-11-29T05:02:05.240Z,65.50
2018-11-29T05:03:05.337Z,65.50
2018-11-29T05:04:05.401Z,65.50
2018-11-29T05:05:05.408Z,65.50
2018-11-29T05:06:05.541Z,65.50
2018-11-29T05:07:10.848Z,65.50
2018-11-29T05:08:06.019Z,65.50
2018-11-29T05:09:05.347Z,65.30
2018-11-29T05:10:05.439Z,65.30
2018-11-29T05:11:05.559Z,65.10
2018-11-29T05:12:05.697Z,65.10
2018-11-29T05:13:05.774Z,64.60
2018-11-29T05:14:08.437Z,64.70
2018-11-29T05:15:07.854Z,64.60
2018-11-29T05:16:08.372Z,64.80
2018-11-29T05:17:07.856Z,64.60
2018-11-29T05:18:08.461Z,64.50
2018-11-29T05:19:05.407Z,64.50
2018-11-29T05:20:05.428Z,64.50
2018-11-29T05:21:05.496Z,64.30
2018-11-29T05:22:05.694Z,64.00
2018-11-29T05:23:05.778Z,63.80
2018-11-29T05:24:06.162Z,63.30
2018-11-29T05:25:05.715Z,63.50
2018-11-29T05:26:08.289Z,63.50
2018-11-29T05:27:05.172Z,63.60
2018-11-29T05:28:05.237Z,63.50
2018-11-29T05:29:08.506Z,62.90
2018-11-29T05:30:05.433Z,62.90
2018-11-29T05:31:08.108Z,62.70
2018-11-29T05:32:05.258Z,62.70
2018-11-29T05:33:07.846Z,63.00
2018-11-29T05:34:05.868Z,62.90
2018-11-29T05:35:06.120Z,63.00
2018-11-29T05:36:05.211Z,63.00
2018-11-29T05:37:05.257Z,62.90
2018-11-29T05:38:05.435Z,62.90
2018-11-29T05:39:05.625Z,63.00
2018-11-29T05:40:08.307Z,62.90
2018-11-29T05:41:07.794Z,62.80
2018-11-29T05:42:08.350Z,63.00
2018-11-29T05:43:05.296Z,63.00
2018-11-29T05:44:08.017Z,62.70
2018-11-29T05:45:05.127Z,62.80
2018-11-29T05:46:05.272Z,62.60
2018-11-29T05:47:05.493Z,62.60
2018-11-29T05:48:05.669Z,62.60
2018-11-29T05:49:07.763Z,62.90
2018-11-29T05:50:08.315Z,63.00
2018-11-29T05:51:07.778Z,63.10
2018-11-29T05:52:05.681Z,63.10
2018-11-29T05:53:05.783Z,62.80
2018-11-29T05:54:05.915Z,62.40
2018-11-29T05:55:05.037Z,62.20
2018-11-29T05:56:10.323Z,61.60
2018-11-29T05:57:07.840Z,61.60
2018-11-29T05:58:05.870Z,61.60
2018-11-29T05:59:05.059Z,61.60
2018-11-29T06:00:07.794Z,61.60
2018-11-29T06:01:05.974Z,61.60
2018-11-29T06:02:10.230Z,61.40
2018-11-29T06:03:05.161Z,61.40
2018-11-29T06:04:05.219Z,61.10
2018-11-29T06:05:07.906Z,61.30
2018-11-29T06:06:05.876Z,61.30
2018-11-29T06:07:08.439Z,61.30
2018-11-29T06:08:05.523Z,61.30
2018-11-29T06:09:08.126Z,61.40
2018-11-29T06:10:05.134Z,61.20
2018-11-29T06:11:07.638Z,60.90
2018-11-29T06:12:05.547Z,61.00
2018-11-29T06:13:05.658Z,61.00
2018-11-29T06:14:08.273Z,60.70
2018-11-29T06:15:07.887Z,60.90
2018-11-29T06:16:08.610Z,60.80
2018-11-29T06:17:05.636Z,60.80
2018-11-29T06:18:08.291Z,60.50
2018-11-29T06:19:10.249Z,60.60
2018-11-29T06:20:05.235Z,60.50
2018-11-29T06:21:05.295Z,60.50
2018-11-29T06:22:05.336Z,60.40
2018-11-29T06:23:05.602Z,60.50
2018-11-29T06:24:05.762Z,60.50
2018-11-29T06:25:07.851Z,60.50
2018-11-29T06:26:05.982Z,60.50
2018-11-29T06:28:05.485Z,60.50
2018-11-29T06:29:05.254Z,60.60
2018-11-29T06:30:05.486Z,60.70
2018-11-29T06:31:08.182Z,60.40
2018-11-29T06:32:05.116Z,60.40
2018-11-29T06:33:05.410Z,60.50
2018-11-29T06:34:05.518Z,60.40
2018-11-29T06:35:08.118Z,60.50
2018-11-29T06:36:05.061Z,60.50
2018-11-29T06:37:07.727Z,60.30
2018-11-29T06:38:05.700Z,60.20
2018-11-29T06:39:08.445Z,60.10
2018-11-29T06:40:07.912Z,60.30
2018-11-29T06:41:10.998Z,60.00
2018-11-29T06:42:10.356Z,60.40
2018-11-29T06:43:05.322Z,60.40
2018-11-29T06:44:07.933Z,60.50
2018-11-29T06:45:08.341Z,60.50
2018-11-29T06:46:05.407Z,60.40
2018-11-29T06:47:08.005Z,60.40
2018-11-29T06:48:08.484Z,60.40
2018-11-29T06:49:05.626Z,60.40
2018-11-29T06:50:05.791Z,60.40
2018-11-29T06:51:08.616Z,60.20
2018-11-29T06:52:05.772Z,60.20
2018-11-29T06:53:05.989Z,60.20
2018-11-29T06:54:07.627Z,60.40
2018-11-29T06:55:05.578Z,60.30
2018-11-29T06:56:05.541Z,60.40
2018-11-29T06:57:05.574Z,60.40
2018-11-29T06:58:05.488Z,60.50
2018-11-29T06:59:08.213Z,60.00
2018-11-29T07:00:05.363Z,60.10
2018-11-29T07:01:07.995Z,60.10
2018-11-29T07:02:05.062Z,60.10
2018-11-29T07:03:05.198Z,60.20
2018-11-29T07:04:07.846Z,60.00
2018-11-29T07:05:05.909Z,60.00
2018-11-29T07:06:05.060Z,59.80
2018-11-29T07:07:07.693Z,59.50
2018-11-29T07:08:05.870Z,59.50
2018-11-29T07:09:06.406Z,59.60
2018-11-29T07:10:05.468Z,59.70
2018-11-29T07:11:08.258Z,59.30
2018-11-29T07:12:05.188Z,59.30
2018-11-29T07:13:05.463Z,59.40
2018-11-29T07:14:05.770Z,59.60
2018-11-29T07:15:05.936Z,59.70
2018-11-29T07:16:05.065Z,59.60
2018-11-29T07:17:05.188Z,59.50
2018-11-29T07:18:07.803Z,59.40
2018-11-29T07:19:08.287Z,59.40
2018-11-29T07:20:07.913Z,59.40
2018-11-29T07:21:06.047Z,59.40
2018-11-29T07:22:05.346Z,59.40
2018-11-29T07:23:05.579Z,59.50
2018-11-29T07:24:10.820Z,59.40
2018-11-29T07:25:05.877Z,59.40
2018-11-29T07:26:05.104Z,59.30
2018-11-29T07:27:10.238Z,58.90
2018-11-29T07:29:05.181Z,59.00
2018-11-29T07:30:05.325Z,59.00
2018-11-29T07:31:05.241Z,59.10
2018-11-29T07:32:07.967Z,57.50
2018-11-29T07:33:06.034Z,57.40
2018-11-29T07:34:05.205Z,57.50
2018-11-29T07:35:05.354Z,57.60
2018-11-29T07:36:05.506Z,57.90
2018-11-29T07:37:05.751Z,58.00
2018-11-29T07:38:08.358Z,57.80
2018-11-29T07:39:07.856Z,57.90
2018-11-29T07:40:08.339Z,57.50
2018-11-29T07:41:05.305Z,57.50
2018-11-29T07:42:07.967Z,57.40
2018-11-29T07:43:13.496Z,57.50
2018-11-29T07:44:08.114Z,57.40
2018-11-29T07:45:05.216Z,57.40
2018-11-29T07:46:05.295Z,57.20
2018-11-29T07:47:05.460Z,57.40
2018-11-29T07:48:05.559Z,57.20
2018-11-29T07:49:08.427Z,57.00
2018-11-29T07:50:05.447Z,57.00
2018-11-29T07:51:05.567Z,57.20
2018-11-29T07:52:05.623Z,57.30
2018-11-29T07:53:05.783Z,57.30
2018-11-29T07:54:08.421Z,57.10
2018-11-29T07:55:05.282Z,57.10
2018-11-29T07:56:05.366Z,56.90
2018-11-29T07:57:08.066Z,56.80
2018-11-29T07:58:10.099Z,56.50
2018-11-29T07:59:05.250Z,56.50
2018-11-29T08:00:08.052Z,56.80
2018-11-29T08:01:05.115Z,56.70
2018-11-29T08:02:05.430Z,56.50
2018-11-29T08:03:05.613Z,56.30
2018-11-29T08:04:05.924Z,56.40
2018-11-29T08:05:05.158Z,56.10
2018-11-29T08:06:12.829Z,55.70
2018-11-29T08:07:05.915Z,55.70
2018-11-29T08:09:07.641Z,55.60
2018-11-29T08:10:05.558Z,55.60
2018-11-29T08:12:08.306Z,54.10
2018-11-29T08:13:07.829Z,53.40
2018-11-29T08:14:05.763Z,53.30
2018-11-29T08:15:08.200Z,53.20
2018-11-29T08:16:05.303Z,53.20
2018-11-29T08:17:05.467Z,53.30
2018-11-29T08:18:05.669Z,53.60
2018-11-29T08:19:08.488Z,53.90
2018-11-29T08:20:05.432Z,53.90
2018-11-29T08:21:10.761Z,53.30
2018-11-29T08:22:08.309Z,53.20
2018-11-29T08:23:05.238Z,53.20
2018-11-29T08:24:05.289Z,53.00
2018-11-29T08:25:10.414Z,52.30
2018-11-29T08:26:05.556Z,52.30
2018-11-29T08:27:05.649Z,52.50
2018-11-29T08:28:05.700Z,52.70
2018-11-29T08:29:05.298Z,52.70
2018-11-29T08:30:05.325Z,52.70
2018-11-29T08:31:07.847Z,52.70
2018-11-29T08:32:08.362Z,52.60
2018-11-29T08:33:05.410Z,52.40
2018-11-29T08:34:07.967Z,52.00
2018-11-29T08:35:05.868Z,52.00
2018-11-29T08:36:06.076Z,51.40
2018-11-29T08:37:05.156Z,51.40
2018-11-29T08:38:07.924Z,51.50
2018-11-29T08:39:06.094Z,51.50
2018-11-29T08:40:07.844Z,51.60
2018-11-29T08:41:05.867Z,51.60
2018-11-29T08:42:05.199Z,52.00
2018-11-29T08:43:05.424Z,52.10
2018-11-29T08:44:05.664Z,52.30
2018-11-29T08:45:05.828Z,52.40
2018-11-29T08:46:05.952Z,52.20
2018-11-29T08:47:05.581Z,51.90
2018-11-29T08:48:08.020Z,51.70
2018-11-29T08:49:08.746Z,51.60
2018-11-29T08:50:10.975Z,51.00
2018-11-29T08:51:05.693Z,51.00
2018-11-29T08:52:05.967Z,50.80
2018-11-29T08:53:07.775Z,50.20
2018-11-29T08:54:05.812Z,50.20
2018-11-29T08:55:05.924Z,50.20
2018-11-29T08:56:05.183Z,50.00
2018-11-29T08:57:05.294Z,49.50
2018-11-29T08:58:05.385Z,49.10
2018-11-29T08:59:10.630Z,49.60
2018-11-29T09:00:08.070Z,49.60
2018-11-29T09:01:05.250Z,49.60
2018-11-29T09:02:05.449Z,49.90
2018-11-29T09:03:05.778Z,50.20
2018-11-29T09:04:05.828Z,49.90
2018-11-29T09:05:08.607Z,49.90
2018-11-29T09:06:08.006Z,49.60
2018-11-29T09:07:08.510Z,49.50
2018-11-29T09:08:10.594Z,49.70
2018-11-29T09:09:05.690Z,49.70
2018-11-29T09:10:05.765Z,49.70
2018-11-29T09:11:11.073Z,49.80
2018-11-29T09:12:05.260Z,49.80
2018-11-29T09:13:05.503Z,49.50
2018-11-29T09:14:08.015Z,49.50
2018-11-29T09:15:05.207Z,49.80
2018-11-29T09:16:05.844Z,49.20
2018-11-29T09:17:08.541Z,48.70
2018-11-29T09:18:05.595Z,48.70
2018-11-29T09:19:05.702Z,48.60
2018-11-29T09:20:05.857Z,48.20
2018-11-29T09:21:05.923Z,48.50
2018-11-29T09:23:05.255Z,48.90
2018-11-29T09:24:07.782Z,48.50
2018-11-29T09:25:05.458Z,48.50
2018-11-29T09:26:07.986Z,48.60
2018-11-29T09:27:05.890Z,48.60
2018-11-29T09:28:08.549Z,49.10
2018-11-29T09:29:08.038Z,49.10
2018-11-29T09:30:06.087Z,49.10
2018-11-29T09:31:05.302Z,48.70
2018-11-29T09:32:05.467Z,47.60
2018-11-29T09:33:05.599Z,47.50
2018-11-29T09:34:08.216Z,47.70
2018-11-29T09:35:05.258Z,47.70
2018-11-29T09:36:07.900Z,47.80
2018-11-29T09:37:05.779Z,47.80
2018-11-29T09:38:05.904Z,47.70
2018-11-29T09:39:06.168Z,47.40
2018-11-29T09:40:05.356Z,47.20
2018-11-29T09:41:05.451Z,47.50
2018-11-29T09:42:08.050Z,48.20
2018-11-29T09:43:06.052Z,48.20
2018-11-29T09:44:05.411Z,48.40
2018-11-29T09:45:08.047Z,47.50
2018-11-29T09:46:05.274Z,47.60
2018-11-29T09:47:05.359Z,47.50
2018-11-29T09:48:05.675Z,47.00
2018-11-29T09:49:08.448Z,46.50
2018-11-29T09:50:05.465Z,46.50
2018-11-29T09:51:05.491Z,46.10
2018-11-29T09:52:08.137Z,46.30
2018-11-29T09:53:05.261Z,46.30
2018-11-29T09:54:10.556Z,46.40
2018-11-29T09:55:08.120Z,46.70
2018-11-29T09:56:05.293Z,46.80
2018-11-29T09:57:05.354Z,46.30
2018-11-29T09:58:05.482Z,46.30
2018-11-29T09:59:08.027Z,46.20
2018-11-29T10:00:05.919Z,46.20
2018-11-29T10:01:05.960Z,46.20
2018-11-29T10:02:05.248Z,46.30
2018-11-29T10:03:05.255Z,46.40
2018-11-29T10:04:05.317Z,46.20
2018-11-29T10:05:05.547Z,46.00
2018-11-29T10:06:10.790Z,46.20
2018-11-29T10:07:05.816Z,46.20
2018-11-29T10:08:12.381Z,46.40
2018-11-29T10:09:05.673Z,45.60
2018-11-29T10:10:05.731Z,45.70
2018-11-29T10:11:05.773Z,46.10
2018-11-29T10:12:05.838Z,46.00
2018-11-29T10:13:08.430Z,45.90
2018-11-29T10:14:10.382Z,45.90
2018-11-29T10:15:05.447Z,45.90
2018-11-29T10:16:08.106Z,45.70
2018-11-29T10:17:05.253Z,45.70
2018-11-29T10:18:05.387Z,45.10
2018-11-29T10:19:05.478Z,45.40
2018-11-29T10:20:05.707Z,45.20
2018-11-29T10:21:08.512Z,44.80
2018-11-29T10:22:05.548Z,44.80
2018-11-29T10:23:10.793Z,44.20
2018-11-29T10:24:05.745Z,44.20
2018-11-29T10:25:05.769Z,43.90
2018-11-29T10:26:05.860Z,44.00
2018-11-29T10:28:05.338Z,44.20
2018-11-29T10:29:05.492Z,44.20
2018-11-29T10:30:05.964Z,44.50
2018-11-29T10:31:05.247Z,44.60
2018-11-29T10:32:07.917Z,44.70
2018-11-29T10:33:06.031Z,44.70
2018-11-29T10:34:05.287Z,44.80
2018-11-29T10:35:05.342Z,44.90
2018-11-29T10:36:05.448Z,44.30
2018-11-29T10:37:05.746Z,44.10
2018-11-29T10:38:06.014Z,44.50
2018-11-29T10:40:05.300Z,44.60
2018-11-29T10:41:08.230Z,44.40
2018-11-29T10:42:05.754Z,44.30
2018-11-29T10:43:08.296Z,43.80
2018-11-29T10:44:05.410Z,43.90
2018-11-29T10:45:05.595Z,43.50
2018-11-29T10:46:05.681Z,43.80
2018-11-29T10:47:05.679Z,43.00
2018-11-29T10:48:05.894Z,43.00
2018-11-29T10:49:06.110Z,43.10
2018-11-29T10:50:05.423Z,43.50
2018-11-29T10:51:05.441Z,43.70
2018-11-29T10:52:05.550Z,44.30
2018-11-29T10:53:05.685Z,43.80
2018-11-29T10:54:05.776Z,43.30
2018-11-29T10:55:05.787Z,42.90
2018-11-29T10:56:05.925Z,42.60
2018-11-29T10:58:05.587Z,43.30
2018-11-29T10:58:10.731Z,42.90
2018-11-29T10:59:08.141Z,43.60
2018-11-29T11:00:10.049Z,43.50
2018-11-29T11:01:07.693Z,43.60
2018-11-29T11:02:08.105Z,43.60
2018-11-29T11:03:05.353Z,43.60
2018-11-29T11:04:05.539Z,43.10
2018-11-29T11:05:05.699Z,42.80
2018-11-29T11:06:08.259Z,42.30
2018-11-29T11:07:05.355Z,42.30
2018-11-29T11:08:08.996Z,42.30
2018-11-29T11:09:05.386Z,42.90
2018-11-29T11:10:05.417Z,41.50
2018-11-29T11:11:05.608Z,42.30
2018-11-29T11:12:08.303Z,42.30
2018-11-29T11:13:05.353Z,42.30
2018-11-29T11:14:05.436Z,42.60
2018-11-29T11:15:10.646Z,42.80
2018-11-29T11:16:05.690Z,42.70
2018-11-29T11:17:05.954Z,42.30
2018-11-29T11:18:05.379Z,42.10
2018-11-29T11:19:05.660Z,41.40
2018-11-29T11:20:05.385Z,41.30
2018-11-29T11:22:05.521Z,41.80
2018-11-29T11:23:08.260Z,42.20
2018-11-29T11:24:05.957Z,42.20
2018-11-29T11:25:05.387Z,42.40
2018-11-29T11:26:08.120Z,42.80
2018-11-29T11:27:05.380Z,42.70
2018-11-29T11:28:08.056Z,42.10
2018-11-29T11:29:08.250Z,40.90
2018-11-29T11:30:10.258Z,41.00
2018-11-29T11:31:05.333Z,41.00
2018-11-29T11:32:05.527Z,41.40
2018-11-29T11:33:08.105Z,42.10
2018-11-29T11:34:05.398Z,42.10
2018-11-29T11:35:05.579Z,41.70
2018-11-29T11:36:08.331Z,41.10
2018-11-29T11:37:05.372Z,41.10
2018-11-29T11:38:07.968Z,41.20
2018-11-29T11:39:05.839Z,41.30
2018-11-29T11:40:08.431Z,40.80
2018-11-29T11:41:10.574Z,40.20
2018-11-29T11:42:08.182Z,40.50
2018-11-29T11:44:05.451Z,40.70
2018-11-29T11:45:05.501Z,41.10
2018-11-29T11:46:05.989Z,41.20
2018-11-29T11:47:05.401Z,41.30
2018-11-29T11:48:05.409Z,41.50
2018-11-29T11:49:05.510Z,40.60
2018-11-29T11:50:13.299Z,41.20
2018-11-29T11:51:05.391Z,41.20
2018-11-29T11:52:11.026Z,41.10
2018-11-29T11:53:05.406Z,41.30
2018-11-29T11:55:05.573Z,40.50
2018-11-29T11:56:08.093Z,40.40
2018-11-29T11:57:05.437Z,40.40
2018-11-29T11:58:05.583Z,40.00
2018-11-29T11:59:05.657Z,40.00
2018-11-29T12:00:08.244Z,39.70
2018-11-29T12:01:05.400Z,39.80
2018-11-29T12:02:05.566Z,40.00
2018-11-29T12:03:10.748Z,40.40
2018-11-29T12:04:05.693Z,40.30
2018-11-29T12:05:05.396Z,40.10
2018-11-29T12:06:08.098Z,40.00
2018-11-29T12:07:05.467Z,40.00
2018-11-29T12:08:05.582Z,40.40
2018-11-29T12:09:08.294Z,40.10
2018-11-29T12:10:05.424Z,40.10
2018-11-29T12:11:05.561Z,39.90
2018-11-29T12:12:05.621Z,39.70
2018-11-29T12:13:05.643Z,39.90
2018-11-29T12:14:05.670Z,39.90
2018-11-29T12:15:05.733Z,40.00
2018-11-29T12:16:08.247Z,40.30
2018-11-29T12:17:05.414Z,40.30
2018-11-29T12:18:05.526Z,40.10
2018-11-29T12:19:05.708Z,39.60
2018-11-29T12:20:05.944Z,39.60
2018-11-29T12:21:05.432Z,39.50
2018-11-29T12:22:05.610Z,39.00
2018-11-29T12:23:08.201Z,39.20
2018-11-29T12:24:05.432Z,39.20
2018-11-29T12:25:05.474Z,39.40
2018-11-29T12:26:05.610Z,39.60
2018-11-29T12:27:08.215Z,39.90
2018-11-29T12:28:10.129Z,39.90
2018-11-29T12:29:05.465Z,40.00
2018-11-29T12:30:05.441Z,40.00
2018-11-29T12:31:05.500Z,40.10
2018-11-29T12:32:05.652Z,39.80
2018-11-29T12:33:05.802Z,39.90
2018-11-29T12:34:08.494Z,40.20
2018-11-29T12:35:05.564Z,40.10
2018-11-29T12:36:05.654Z,40.00
2018-11-29T12:37:05.721Z,40.20
2018-11-29T12:38:05.942Z,40.00
2018-11-29T12:39:05.786Z,40.00
2018-11-29T12:40:08.405Z,40.40
2018-11-29T12:41:05.429Z,40.40
2018-11-29T12:42:08.183Z,40.80
2018-11-29T12:43:05.495Z,40.80
2018-11-29T12:44:05.767Z,41.00
2018-11-29T12:45:05.838Z,41.10
2018-11-29T12:46:05.876Z,41.20
2018-11-29T12:47:08.447Z,41.20
2018-11-29T12:48:05.417Z,41.20
2018-11-29T12:49:05.659Z,41.20
2018-11-29T12:50:05.694Z,41.30
2018-11-29T12:51:08.215Z,40.70
2018-11-29T12:52:05.497Z,40.70
2018-11-29T12:53:05.486Z,40.70
2018-11-29T12:54:05.526Z,40.60
2018-11-29T12:55:05.789Z,40.90
2018-11-29T12:56:05.893Z,40.60
2018-11-29T12:57:06.027Z,40.90
2018-11-29T12:58:06.189Z,41.00
2018-11-29T12:59:05.449Z,41.10
2018-11-29T13:00:05.522Z,41.30
2018-11-29T13:01:05.555Z,41.40
2018-11-29T13:02:05.631Z,41.30